createdAt,value
2023-05-05T00:03:37.855Z,53.07
2023-05-05T00:06:08.372Z,51.56
2023-05-05T00:08:35.416Z,51.19
2023-05-05T00:11:02.722Z,51.04
2023-05-05T00:13:30.257Z,52.20
2023-05-05T00:15:57.662Z,51.53
2023-05-05T00:18:24.588Z,50.70
2023-05-05T00:20:51.804Z,51.27
2023-05-05T00:23:19.986Z,51.93
2023-05-05T00:25:47.241Z,51.51
2023-05-05T00:28:15.429Z,52.42
2023-05-05T00:30:42.634Z,51.75
2023-05-05T00:33:10.853Z,51.80
2023-05-05T00:35:39.527Z,53.00
2023-05-05T00:38:10.929Z,51.62
2023-05-05T00:40:45.288Z,53.03
2023-05-05T00:43:17.210Z,51.91
2023-05-05T00:45:48.619Z,51.99
2023-05-05T00:48:18.828Z,52.75
2023-05-05T00:50:50.495Z,53.89
2023-05-05T00:53:18.747Z,56.61
2023-05-05T00:55:46.928Z,55.83
2023-05-05T00:58:15.608Z,57.03
2023-05-05T01:00:43.340Z,57.58
2023-05-05T01:03:16.751Z,56.89
2023-05-05T01:06:06.508Z,57.40
2023-05-05T01:09:02.765Z,57.80
2023-05-05T01:11:46.987Z,57.20
2023-05-05T01:14:21.482Z,56.45
2023-05-05T01:17:08.372Z,55.65
2023-05-05T01:20:20.892Z,55.04
2023-05-05T01:23:09.815Z,54.53
2023-05-05T01:26:04.721Z,55.23
2023-05-05T01:28:41.859Z,53.81
2023-05-05T01:31:47.434Z,53.28
2023-05-05T01:34:25.430Z,54.52
2023-05-05T01:36:59.216Z,55.32
2023-05-05T01:39:30.460Z,55.03
2023-05-05T01:42:03.191Z,56.37
2023-05-05T01:44:35.032Z,56.45
2023-05-05T01:47:09.135Z,54.78
2023-05-05T01:49:38.623Z,55.28
2023-05-05T01:52:07.410Z,56.94
2023-05-05T01:54:40.096Z,56.43
2023-05-05T01:57:11.431Z,55.01
2023-05-05T01:59:41.503Z,55.33
2023-05-05T02:02:16.021Z,55.32
2023-05-05T02:04:47.023Z,54.34
2023-05-05T02:07:16.776Z,54.72
2023-05-05T02:09:46.423Z,55.67
2023-05-05T02:12:17.491Z,56.43
2023-05-05T02:14:47.442Z,56.92
2023-05-05T02:17:17.192Z,56.98
2023-05-05T02:19:47.979Z,56.53
2023-05-05T02:22:17.358Z,56.51
2023-05-05T02:24:45.114Z,56.07
2023-05-05T02:27:19.752Z,54.96
2023-05-05T02:29:51.132Z,56.18
2023-05-05T02:32:24.545Z,56.56
2023-05-05T02:34:56.557Z,55.05
2023-05-05T02:37:29.726Z,55.22
2023-05-05T02:40:05.087Z,55.11
2023-05-05T02:42:37.949Z,57.90
2023-05-05T02:45:17.767Z,56.78
2023-05-05T02:47:48.098Z,56.83
2023-05-05T02:50:17.347Z,57.46
2023-05-05T02:52:54.794Z,57.84
2023-05-05T02:55:24.173Z,57.44
2023-05-05T02:58:04.281Z,57.56
2023-05-05T03:00:49.657Z,56.80
2023-05-05T03:03:31.816Z,57.15
2023-05-05T03:06:11.390Z,56.67
2023-05-05T03:09:08.059Z,55.84
2023-05-05T03:11:50.022Z,56.56
2023-05-05T03:14:20.061Z,55.45
2023-05-05T03:16:50.197Z,55.08
2023-05-05T03:19:19.264Z,55.07
2023-05-05T03:21:49.705Z,56.35
2023-05-05T03:24:20.242Z,55.27
2023-05-05T03:27:02.559Z,55.65
2023-05-05T03:29:36.833Z,59.62
2023-05-05T03:32:09.041Z,59.21
2023-05-05T03:34:38.358Z,59.07
2023-05-05T03:37:06.622Z,57.99
2023-05-05T03:39:36.711Z,55.34
2023-05-05T03:42:06.369Z,54.87
2023-05-05T03:44:36.692Z,54.14
2023-05-05T03:47:05.908Z,54.85
2023-05-05T03:49:36.886Z,54.54
2023-05-05T03:52:04.896Z,54.64
2023-05-05T03:54:34.042Z,57.01
2023-05-05T03:57:04.743Z,57.24
2023-05-05T04:00:05.287Z,56.25
2023-05-05T04:03:20.934Z,57.21
2023-05-05T04:06:21.525Z,56.52
2023-05-05T04:08:49.312Z,57.18
2023-05-05T04:11:17.616Z,57.50
2023-05-05T04:13:45.694Z,57.12
2023-05-05T04:16:15.982Z,57.46
2023-05-05T04:18:43.790Z,56.92
2023-05-05T04:21:11.561Z,57.24
2023-05-05T04:23:41.765Z,56.73
2023-05-05T04:26:11.770Z,56.06
2023-05-05T04:29:31.583Z,55.70
2023-05-05T04:32:03.663Z,56.35
2023-05-05T04:34:33.862Z,55.76
2023-05-05T04:37:17.284Z,55.82
2023-05-05T04:39:56.880Z,56.29
2023-05-05T04:42:53.202Z,56.51
2023-05-05T04:45:22.683Z,56.24
2023-05-05T04:47:50.308Z,55.58
2023-05-05T04:50:19.747Z,55.63
2023-05-05T04:52:48.154Z,55.83
2023-05-05T04:55:16.110Z,56.50
2023-05-05T04:57:43.537Z,56.02
2023-05-05T05:00:11.784Z,56.34
2023-05-05T05:02:39.809Z,55.29
2023-05-05T05:05:07.683Z,54.68
2023-05-05T05:07:36.549Z,53.47
2023-05-05T05:10:04.671Z,53.69
2023-05-05T05:12:32.674Z,53.79
2023-05-05T05:15:01.476Z,54.66
2023-05-05T05:17:31.052Z,55.93
2023-05-05T05:20:01.770Z,57.41
2023-05-05T05:22:31.820Z,56.07
2023-05-05T05:25:00.020Z,56.19
2023-05-05T05:27:28.400Z,55.46
2023-05-05T05:29:56.959Z,53.86
2023-05-05T05:32:25.060Z,52.04
2023-05-05T05:34:52.062Z,52.05
2023-05-05T05:37:19.995Z,52.14
2023-05-05T05:39:57.007Z,52.68
2023-05-05T05:42:26.846Z,51.25
2023-05-05T05:44:56.808Z,50.45
2023-05-05T05:47:25.207Z,48.49
2023-05-05T05:49:56.158Z,48.96
2023-05-05T05:52:23.706Z,47.61
2023-05-05T05:54:51.278Z,48.93
2023-05-05T05:57:19.323Z,50.96
2023-05-05T06:00:01.620Z,50.19
2023-05-05T06:02:39.330Z,50.06
2023-05-05T06:05:10.702Z,48.66
2023-05-05T06:07:39.582Z,48.28
2023-05-05T06:10:25.180Z,48.23
2023-05-05T06:12:56.209Z,48.77
2023-05-05T06:15:23.337Z,48.97
2023-05-05T06:17:50.103Z,48.91
2023-05-05T06:20:17.196Z,49.65
2023-05-05T06:22:45.342Z,50.12
2023-05-05T06:25:13.071Z,48.92
2023-05-05T06:27:40.630Z,48.54
2023-05-05T06:30:16.563Z,47.38
2023-05-05T06:32:55.278Z,45.22
2023-05-05T06:35:22.817Z,45.54
2023-05-05T06:37:49.735Z,46.12
2023-05-05T06:40:17.159Z,46.76
2023-05-05T06:42:44.507Z,47.28
2023-05-05T06:45:18.110Z,45.44
2023-05-05T06:47:45.046Z,45.31
2023-05-05T06:50:23.731Z,44.65
2023-05-05T06:53:00.432Z,43.84
2023-05-05T06:55:28.941Z,43.23
2023-05-05T06:57:59.333Z,41.63
2023-05-05T07:00:26.481Z,41.18
2023-05-05T07:02:56.631Z,41.14
2023-05-05T07:05:24.120Z,42.12
2023-05-05T07:07:56.027Z,41.00
2023-05-05T07:10:24.068Z,40.11
2023-05-05T07:12:52.606Z,39.26
2023-05-05T07:15:27.327Z,39.00
2023-05-05T07:17:57.085Z,38.16
2023-05-05T07:20:24.402Z,36.67
2023-05-05T07:22:51.822Z,36.09
2023-05-05T07:25:19.188Z,37.24
2023-05-05T07:27:46.312Z,36.08
2023-05-05T07:30:18.076Z,36.26
2023-05-05T07:32:46.075Z,35.66
2023-05-05T07:35:13.187Z,36.41
2023-05-05T07:37:40.577Z,35.66
2023-05-05T07:40:08.157Z,37.21
2023-05-05T07:42:36.612Z,35.93
2023-05-05T07:45:06.006Z,35.04
2023-05-05T07:47:33.167Z,33.41
2023-05-05T07:50:01.721Z,34.44
2023-05-05T07:52:44.101Z,33.99
2023-05-05T07:55:16.516Z,35.61
2023-05-05T07:57:44.019Z,34.32
2023-05-05T08:00:13.732Z,33.70
2023-05-05T08:02:44.440Z,33.17
2023-05-05T08:05:14.210Z,32.92
2023-05-05T08:07:46.384Z,33.14
2023-05-05T08:10:14.664Z,31.93
2023-05-05T08:12:42.120Z,32.17
2023-05-05T08:15:09.867Z,33.62
2023-05-05T08:17:46.361Z,30.99
2023-05-05T08:20:18.703Z,32.47
2023-05-05T08:22:47.768Z,30.87
2023-05-05T08:25:18.618Z,31.08
2023-05-05T08:27:49.285Z,30.69
2023-05-05T08:30:27.067Z,31.62
2023-05-05T08:32:58.784Z,31.26
2023-05-05T08:35:26.315Z,30.76
2023-05-05T08:37:56.036Z,31.32
2023-05-05T08:40:39.583Z,30.67
2023-05-05T08:43:07.117Z,28.91
2023-05-05T08:45:38.937Z,27.13
2023-05-05T08:48:18.954Z,26.62
2023-05-05T08:51:00.780Z,25.85
2023-05-05T08:53:55.846Z,27.04
2023-05-05T08:56:33.621Z,26.89
2023-05-05T08:59:04.732Z,26.07
2023-05-05T09:01:35.736Z,26.46
2023-05-05T09:04:08.278Z,26.61
2023-05-05T09:06:37.380Z,24.97
2023-05-05T09:09:05.265Z,25.06
2023-05-05T09:11:37.534Z,22.42
2023-05-05T09:14:05.205Z,23.05
2023-05-05T09:16:32.516Z,21.94
2023-05-05T09:19:04.525Z,20.92
2023-05-05T09:21:35.302Z,21.74
2023-05-05T09:24:10.870Z,20.52
2023-05-05T09:26:45.713Z,23.63
2023-05-05T09:29:24.262Z,22.09
2023-05-05T09:32:08.723Z,20.07
2023-05-05T09:34:37.243Z,22.71
2023-05-05T09:37:06.118Z,22.29
2023-05-05T09:39:33.596Z,23.42
2023-05-05T09:42:03.584Z,23.27
2023-05-05T09:44:36.607Z,21.68
2023-05-05T09:47:09.336Z,22.56
2023-05-05T09:49:39.761Z,23.44
2023-05-05T09:52:17.825Z,24.46
2023-05-05T09:54:45.533Z,23.74
2023-05-05T09:57:27.621Z,21.88
2023-05-05T09:59:57.977Z,20.93
2023-05-05T10:02:33.608Z,23.62
2023-05-05T10:05:19.212Z,20.96
2023-05-05T10:07:47.932Z,20.83
2023-05-05T10:10:17.849Z,20.61
2023-05-05T10:12:50.197Z,19.99
2023-05-05T10:15:18.116Z,19.93
2023-05-05T10:18:02.455Z,19.71
2023-05-05T10:20:36.487Z,19.93
2023-05-05T10:23:08.333Z,19.29
2023-05-05T10:25:42.680Z,22.48
2023-05-05T10:28:23.276Z,20.36
2023-05-05T10:30:55.828Z,18.42
2023-05-05T10:33:35.934Z,20.48
2023-05-05T10:36:06.616Z,18.72
2023-05-05T10:38:36.341Z,19.26
2023-05-05T10:41:04.597Z,19.92
2023-05-05T10:43:32.188Z,19.89
2023-05-05T10:46:00.836Z,20.49
2023-05-05T10:48:56.970Z,20.95
2023-05-05T10:51:42.556Z,22.49
2023-05-05T10:54:29.421Z,22.86
2023-05-05T10:57:05.327Z,21.86
2023-05-05T10:59:38.928Z,19.29
2023-05-05T11:02:20.096Z,18.06
2023-05-05T11:05:15.338Z,17.32
2023-05-05T11:07:50.028Z,16.97
2023-05-05T11:10:21.194Z,16.70
2023-05-05T11:12:55.202Z,17.49
2023-05-05T11:15:22.444Z,18.10
2023-05-05T11:17:50.673Z,15.65
2023-05-05T11:20:45.416Z,16.38
2023-05-05T11:23:13.419Z,15.90
2023-05-05T11:25:45.564Z,16.50
2023-05-05T11:28:17.548Z,15.90
2023-05-05T11:30:53.708Z,16.17
2023-05-05T11:33:37.875Z,17.09
2023-05-05T11:36:11.877Z,16.36
2023-05-05T11:39:18.474Z,17.75
2023-05-05T11:42:06.586Z,18.56
2023-05-05T11:44:37.911Z,15.99
2023-05-05T11:47:09.106Z,15.99
2023-05-05T11:49:38.443Z,16.65
2023-05-05T11:52:13.839Z,15.88
2023-05-05T11:54:49.257Z,17.56
2023-05-05T11:57:21.435Z,18.45
2023-05-05T12:00:06.653Z,17.52
2023-05-05T12:02:34.721Z,17.08
2023-05-05T12:05:02.873Z,17.45
2023-05-05T12:07:32.200Z,16.89
2023-05-05T12:09:59.732Z,18.80
2023-05-05T12:12:41.155Z,18.60
2023-05-05T12:15:09.732Z,18.63
2023-05-05T12:17:43.972Z,15.99
2023-05-05T12:20:13.613Z,17.44
2023-05-05T12:22:41.466Z,17.31
2023-05-05T12:25:09.051Z,18.56
2023-05-05T12:27:37.214Z,17.44
2023-05-05T12:30:13.732Z,15.75
2023-05-05T12:32:41.150Z,16.05
2023-05-05T12:35:09.815Z,16.26
2023-05-05T12:37:38.003Z,17.37
2023-05-05T12:40:06.612Z,20.08
2023-05-05T12:42:41.083Z,17.19
2023-05-05T12:45:17.873Z,16.49
2023-05-05T12:47:45.505Z,14.88
2023-05-05T12:50:12.652Z,16.28
2023-05-05T12:52:46.154Z,15.40
2023-05-05T12:55:13.516Z,14.68
2023-05-05T12:58:04.693Z,14.39
2023-05-05T13:00:32.594Z,15.90
2023-05-05T13:03:00.028Z,15.61
2023-05-05T13:05:41.772Z,15.50
2023-05-05T13:08:09.714Z,15.16
2023-05-05T13:10:40.448Z,15.66
2023-05-05T13:13:10.861Z,14.59
2023-05-05T13:15:39.958Z,15.35
2023-05-05T13:18:09.108Z,14.95
2023-05-05T13:20:38.107Z,15.25
2023-05-05T13:23:13.029Z,13.79
2023-05-05T13:25:41.612Z,16.03
2023-05-05T13:28:10.250Z,16.41
2023-05-05T13:30:40.690Z,16.03
2023-05-05T13:33:09.400Z,16.65
2023-05-05T13:35:39.709Z,16.42
2023-05-05T13:38:07.309Z,15.25
2023-05-05T13:40:37.816Z,13.73
2023-05-05T13:43:06.083Z,17.02
2023-05-05T13:45:34.086Z,17.72
2023-05-05T13:48:04.679Z,17.19
2023-05-05T13:50:32.938Z,15.71
2023-05-05T13:53:03.995Z,14.28
2023-05-05T13:55:35.690Z,15.68
2023-05-05T13:58:06.783Z,15.02
2023-05-05T14:00:36.840Z,15.54
2023-05-05T14:03:06.588Z,14.70
2023-05-05T14:05:42.784Z,14.42
2023-05-05T14:08:13.737Z,14.67
2023-05-05T14:10:42.376Z,13.85
2023-05-05T14:13:11.357Z,15.47
2023-05-05T14:15:42.742Z,13.27
2023-05-05T14:18:19.801Z,14.29
2023-05-05T14:20:50.837Z,14.15
2023-05-05T14:23:20.086Z,14.11
2023-05-05T14:25:49.863Z,13.66
2023-05-05T14:28:21.212Z,14.07
2023-05-05T14:30:50.307Z,14.65
2023-05-05T14:33:19.659Z,15.65
2023-05-05T14:35:48.509Z,14.98
2023-05-05T14:38:19.652Z,15.50
2023-05-05T14:43:35.384Z,17.45
2023-05-05T14:46:14.569Z,17.03
2023-05-05T14:48:49.319Z,17.29
2023-05-05T14:51:18.509Z,17.27
2023-05-05T14:53:46.789Z,16.92
2023-05-05T14:56:17.786Z,15.78
2023-05-05T14:58:50.686Z,15.60
2023-05-05T15:01:21.016Z,15.46
2023-05-05T15:03:48.789Z,16.53
2023-05-05T15:06:17.644Z,17.24
2023-05-05T15:08:48.076Z,17.53
2023-05-05T15:11:23.425Z,16.98
2023-05-05T15:13:51.945Z,17.50
2023-05-05T15:16:31.379Z,16.83
2023-05-05T15:19:22.449Z,16.31
2023-05-05T15:21:54.717Z,16.36
2023-05-05T15:24:26.896Z,16.13
2023-05-05T15:26:56.097Z,16.99
2023-05-05T15:29:25.700Z,17.46
2023-05-05T15:31:53.877Z,18.64
2023-05-05T15:34:21.852Z,17.22
2023-05-05T15:36:51.869Z,17.62
2023-05-05T15:39:22.938Z,18.43
2023-05-05T15:42:06.777Z,18.24
2023-05-05T15:44:38.911Z,17.98
2023-05-05T15:47:12.569Z,18.00
2023-05-05T15:49:44.693Z,18.35
2023-05-05T15:52:15.663Z,18.05
2023-05-05T15:54:45.539Z,18.04
2023-05-05T15:57:20.865Z,18.76
2023-05-05T15:59:55.756Z,19.61
2023-05-05T16:02:27.569Z,19.11
2023-05-05T16:05:06.310Z,20.06
2023-05-05T16:07:37.928Z,20.00
2023-05-05T16:10:12.276Z,20.74
2023-05-05T16:12:41.946Z,20.92
2023-05-05T16:15:12.532Z,21.16
2023-05-05T16:17:41.189Z,21.28
2023-05-05T16:20:09.742Z,21.63
2023-05-05T16:22:38.657Z,22.69
2023-05-05T16:25:07.797Z,22.64
2023-05-05T16:27:37.677Z,22.90
2023-05-05T16:30:06.531Z,23.18
2023-05-05T16:32:42.921Z,22.34
2023-05-05T16:35:13.162Z,22.90
2023-05-05T16:37:49.731Z,23.26
2023-05-05T16:40:19.631Z,23.27
2023-05-05T16:42:47.571Z,23.83
2023-05-05T16:45:17.944Z,24.16
2023-05-05T16:47:57.922Z,24.19
2023-05-05T16:50:26.922Z,24.39
2023-05-05T16:52:54.701Z,24.75
2023-05-05T16:55:26.308Z,24.60
2023-05-05T16:57:54.601Z,24.94
2023-05-05T17:00:27.641Z,24.89
2023-05-05T17:02:57.736Z,25.05
2023-05-05T17:05:26.439Z,25.12
2023-05-05T17:07:54.686Z,25.20
2023-05-05T17:10:26.308Z,25.71
2023-05-05T17:12:56.284Z,25.70
2023-05-05T17:15:24.942Z,25.51
2023-05-05T17:17:54.183Z,25.52
2023-05-05T17:20:24.196Z,25.89
2023-05-05T17:23:01.661Z,26.06
2023-05-05T17:25:30.895Z,25.86
2023-05-05T17:28:11.325Z,26.16
2023-05-05T17:30:39.930Z,27.01
2023-05-05T17:33:08.908Z,26.98
2023-05-05T17:35:39.207Z,27.38
2023-05-05T17:38:07.908Z,27.35
2023-05-05T17:40:39.760Z,27.38
2023-05-05T17:43:10.156Z,27.35
2023-05-05T17:45:38.970Z,27.59
2023-05-05T17:48:07.653Z,27.40
2023-05-05T17:50:37.346Z,27.03
2023-05-05T17:53:06.148Z,27.47
2023-05-05T17:55:36.836Z,27.34
2023-05-05T17:58:04.554Z,26.85
2023-05-05T18:00:33.127Z,26.47
2023-05-05T18:03:06.265Z,27.22
2023-05-05T18:05:39.347Z,27.81
2023-05-05T18:08:09.709Z,28.32
2023-05-05T18:10:50.255Z,28.88
2023-05-05T18:13:22.259Z,28.90
2023-05-05T18:15:53.768Z,29.91
2023-05-05T18:18:27.189Z,29.55
2023-05-05T18:20:58.604Z,29.91
2023-05-05T18:23:27.920Z,29.99
2023-05-05T18:25:59.669Z,31.10
2023-05-05T18:28:30.517Z,33.66
2023-05-05T18:31:00.239Z,34.64
2023-05-05T18:33:47.558Z,35.79
2023-05-05T18:36:21.441Z,35.79
2023-05-05T18:38:52.634Z,35.57
2023-05-05T18:41:29.562Z,34.91
2023-05-05T18:43:58.610Z,34.65
2023-05-05T18:46:28.776Z,33.61
2023-05-05T18:48:59.360Z,33.46
2023-05-05T18:51:28.901Z,32.40
2023-05-05T18:54:01.705Z,32.51
2023-05-05T18:56:30.888Z,32.39
2023-05-05T18:59:01.079Z,32.62
2023-05-05T19:01:29.923Z,32.61
2023-05-05T19:04:02.175Z,33.27
2023-05-05T19:06:32.201Z,34.46
2023-05-05T19:09:01.744Z,33.59
2023-05-05T19:11:30.169Z,33.37
2023-05-05T19:13:59.857Z,33.51
2023-05-05T19:16:32.684Z,34.19
2023-05-05T19:19:01.722Z,34.96
2023-05-05T19:21:33.804Z,34.58
2023-05-05T19:24:13.275Z,35.00
2023-05-05T19:26:47.492Z,35.11
2023-05-05T19:29:19.062Z,34.37
2023-05-05T19:31:47.987Z,34.88
2023-05-05T19:34:26.872Z,35.43
2023-05-05T19:37:00.388Z,35.79
2023-05-05T19:39:28.970Z,35.19
2023-05-05T19:42:03.600Z,35.07
2023-05-05T19:44:31.888Z,34.61
2023-05-05T19:47:00.490Z,34.21
2023-05-05T19:49:29.437Z,34.45
2023-05-05T19:51:59.158Z,34.07
2023-05-05T19:54:27.450Z,34.30
2023-05-05T19:57:02.796Z,34.65
2023-05-05T19:59:31.862Z,34.41
2023-05-05T20:02:00.970Z,34.77
2023-05-05T20:04:28.654Z,35.01
2023-05-05T20:07:00.704Z,34.78
2023-05-05T20:09:30.985Z,35.32
2023-05-05T20:12:07.500Z,36.13
2023-05-05T20:14:36.329Z,36.01
2023-05-05T20:17:06.530Z,36.34
2023-05-05T20:19:34.380Z,36.69
2023-05-05T20:22:05.304Z,36.38
2023-05-05T20:24:34.000Z,37.62
2023-05-05T20:27:07.560Z,37.24
2023-05-05T20:29:38.169Z,37.83
2023-05-05T20:32:08.391Z,38.70
2023-05-05T20:34:36.795Z,38.57
2023-05-05T20:37:04.755Z,38.37
2023-05-05T20:39:32.025Z,36.67
2023-05-05T20:42:01.942Z,36.75
2023-05-05T20:44:30.176Z,36.39
2023-05-05T20:46:58.443Z,36.60
2023-05-05T20:49:26.382Z,36.61
2023-05-05T20:51:54.966Z,37.67
2023-05-05T20:54:26.253Z,37.14
2023-05-05T20:56:58.765Z,37.49
2023-05-05T20:59:29.615Z,37.71
2023-05-05T21:01:58.740Z,38.29
2023-05-05T21:04:27.504Z,39.02
2023-05-05T21:06:54.963Z,38.53
2023-05-05T21:09:24.626Z,39.28
2023-05-05T21:11:52.072Z,38.89
2023-05-05T21:14:19.352Z,39.01
2023-05-05T21:16:46.635Z,39.40
2023-05-05T21:19:13.845Z,39.74
2023-05-05T21:21:41.206Z,38.63
2023-05-05T21:24:09.049Z,39.13
2023-05-05T21:26:40.915Z,38.33
2023-05-05T21:29:09.340Z,37.77
2023-05-05T21:31:38.586Z,38.06
2023-05-05T21:34:06.055Z,38.39
2023-05-05T21:36:34.189Z,38.83
2023-05-05T21:39:06.964Z,38.37
2023-05-05T21:41:36.812Z,36.96
2023-05-05T21:44:06.627Z,37.21
2023-05-05T21:46:34.483Z,37.35
2023-05-05T21:49:15.368Z,37.56
2023-05-05T21:51:45.910Z,37.20
2023-05-05T21:54:13.555Z,37.37
2023-05-05T21:56:40.835Z,36.88
2023-05-05T21:59:09.077Z,37.19
2023-05-05T22:01:37.980Z,38.46
2023-05-05T22:04:05.637Z,38.71
2023-05-05T22:06:39.428Z,40.47
2023-05-05T22:09:07.792Z,40.98
2023-05-05T22:11:37.531Z,41.17
2023-05-05T22:14:07.032Z,42.59
2023-05-05T22:16:34.330Z,42.52
2023-05-05T22:19:02.033Z,41.38
2023-05-05T22:21:29.379Z,41.17
2023-05-05T22:23:58.034Z,40.76
2023-05-05T22:26:26.040Z,40.11
2023-05-05T22:28:53.676Z,41.30
2023-05-05T22:31:21.492Z,43.14
2023-05-05T22:33:48.745Z,42.40
2023-05-05T22:36:17.747Z,41.84
2023-05-05T22:38:45.163Z,43.13
2023-05-05T22:41:12.658Z,42.25
2023-05-05T22:43:40.536Z,42.97
2023-05-05T22:46:07.757Z,42.62
2023-05-05T22:48:35.029Z,42.59
2023-05-05T22:51:03.770Z,43.12
2023-05-05T22:53:30.779Z,43.15
2023-05-05T22:55:59.639Z,42.96
2023-05-05T22:58:29.759Z,42.90
2023-05-05T23:00:57.988Z,43.10
2023-05-05T23:03:25.749Z,43.90
2023-05-05T23:05:52.926Z,43.47
2023-05-05T23:08:20.896Z,44.81
2023-05-05T23:10:48.185Z,45.57
2023-05-05T23:13:15.205Z,44.16
2023-05-05T23:15:43.957Z,44.55
2023-05-05T23:18:11.557Z,45.46
2023-05-05T23:20:39.309Z,45.97
2023-05-05T23:23:07.037Z,45.96
2023-05-05T23:25:34.486Z,46.22
2023-05-05T23:28:02.309Z,45.86
2023-05-05T23:30:29.796Z,45.99
2023-05-05T23:32:58.313Z,46.52
2023-05-05T23:35:26.426Z,45.47
2023-05-05T23:37:53.882Z,46.25
2023-05-05T23:40:21.518Z,44.40
2023-05-05T23:42:49.419Z,44.82
2023-05-05T23:45:19.480Z,43.55
2023-05-05T23:47:47.217Z,43.29
2023-05-05T23:50:14.505Z,43.43
2023-05-05T23:52:42.372Z,43.40
2023-05-05T23:55:11.036Z,45.09
2023-05-05T23:57:39.375Z,44.88
